Quad City International Airport
KMLI : now visible

Airfield :











YOU CAN JOIN US ON...

 
LOGIN :

Register | Disclaimer

   EN    FR    IT 

 









Legend :    VFR   Marginal VFR   IFR   Intensive IFR   Very Intensive IFR
Visi :
Ceiling :
>= 8 km
>= 3000ft
5 to 8 km
1000 to 3000 ft
1500m to 5 km
500 to 1000 ft
800 to 1500m
200 to 500 ft
< 800m
< 200 ft
Symbols :   Thunderstorms  Fog  Heavy snow  Heavy precipitations  Wind > 20 kt






- Airport Elevation : 590 ft
- IATA code : MLI


KMLI - Quad City International

CURRENT METAR :
  • 080852Z AUTO 02003KT 6SM BR CLR M02/M04 A3037 RMK AO2 SLP291 T10171039 55004

EXPIRED METARs :
  • 080810Z AUTO 00000KT 6SM BR OVC008 M01/M03 A3038 RMK AO2 T10111028
  • 080741Z AUTO 05004KT 7SM BKN011 M01/M03 A3036 RMK AO2 T10061028
  • 080652Z AUTO 04004KT 7SM CLR M01/M03 A3038 RMK AO2 SLP292 T10061028
  • 080604Z AUTO 02003KT 7SM SCT013 M01/M03 A3038 RMK AO2 T10061028

TAF KMLI
Valid from the 08 at 06:00 until the 09 at 06:00 UTC


080534Z 0806/0906 04005KT 6SM BR OVC010
FM081200 07005KT 4SM BR BKN020
FM081600 08007KT P6SM OVC040
FM090300 09009KT 3SM RA BR OVC015
KZAU FIR / North America



MET'MAP, your aeronautical weather chart ! - Copyright ORBIFLY December 2007 - Disclaimer

ORBIFLY MET'MAP TEAM :

Programming & Development : Alexandra Zaïnal
Original concept : Baudouin d'Aumeries
Technical & hardware support : Manuel Goepfert
Assistance : Marc-Olivier Méhu




SOURCES & CREDITS :

   NOAA       Earth
Advisory